Time;durP1;ratioP1;P1;durP2;ratioP2;P2;SDS_P1;SDS_P2;PMS_P1;PMS_P2;Temp;Humidity;BMP_temperature;BMP_pressure;BME280_temperature;BME280_humidity;BME280_pressure;Samples;Min_cycle;Max_cycle;Signal;HPM_P1;HPM_P2
2023/10/24 00:00:44;;;;;;;2.27;2.10;;;14.70;99.90;;;;;;930173;150;27347;-76
2023/10/24 00:03:11;;;;;;;2.30;1.75;;;14.70;99.90;;;;;;927974;150;27371;-76
2023/10/24 00:05:37;;;;;;;1.90;1.80;;;14.80;99.90;;;;;;925982;150;27323;-76
2023/10/24 00:08:04;;;;;;;2.58;1.87;;;14.80;99.90;;;;;;927139;150;28513;-76
2023/10/24 00:10:30;;;;;;;2.10;1.90;;;14.80;99.90;;;;;;926654;153;27432;-76
2023/10/24 00:12:57;;;;;;;3.60;2.08;;;14.80;99.90;;;;;;927260;150;27401;-76
2023/10/24 00:15:23;;;;;;;3.45;2.40;;;14.80;99.90;;;;;;906623;153;27314;-76
2023/10/24 00:17:50;;;;;;;4.20;2.15;;;14.90;99.90;;;;;;928065;150;27445;-76
2023/10/24 00:20:17;;;;;;;2.42;2.22;;;14.90;99.90;;;;;;926724;150;27301;-76
2023/10/24 00:22:43;;;;;;;1.90;1.70;;;14.90;99.90;;;;;;929202;150;28387;-76
2023/10/24 00:25:10;;;;;;;1.95;1.82;;;14.90;99.90;;;;;;928277;150;27333;-76
2023/10/24 00:27:36;;;;;;;2.37;2.17;;;14.90;99.90;;;;;;927381;150;27426;-76
2023/10/24 00:30:03;;;;;;;2.22;2.02;;;15.00;99.90;;;;;;928440;150;27374;-76
2023/10/24 00:32:30;;;;;;;2.50;2.30;;;15.00;99.90;;;;;;928236;151;27895;-76
2023/10/24 00:34:56;;;;;;;1.90;1.80;;;15.00;99.90;;;;;;928450;150;27468;-77
2023/10/24 00:37:23;;;;;;;3.33;2.15;;;15.00;99.90;;;;;;929349;150;27367;-77
2023/10/24 00:39:49;;;;;;;2.42;2.17;;;15.00;99.90;;;;;;926417;150;27504;-77
2023/10/24 00:42:16;;;;;;;1.85;1.75;;;15.10;99.90;;;;;;927052;150;27372;-76
2023/10/24 00:44:43;;;;;;;2.65;2.05;;;15.10;99.90;;;;;;928609;150;27468;-76
2023/10/24 00:47:09;;;;;;;1.90;1.75;;;15.00;99.90;;;;;;927809;150;27365;-76
2023/10/24 00:49:36;;;;;;;2.27;1.92;;;15.10;99.90;;;;;;935801;149;27830;-76
2023/10/24 00:52:02;;;;;;;2.47;2.00;;;15.10;99.90;;;;;;942746;149;27356;-76
2023/10/24 00:54:29;;;;;;;1.60;1.50;;;15.10;99.90;;;;;;939847;149;27370;-76
2023/10/24 00:56:55;;;;;;;2.80;2.30;;;15.10;99.90;;;;;;940817;148;27437;-76
2023/10/24 00:59:22;;;;;;;4.22;2.33;;;15.10;99.90;;;;;;941715;149;27377;-76
2023/10/24 01:01:49;;;;;;;2.85;2.20;;;15.10;99.90;;;;;;940923;149;27494;-76
2023/10/24 01:04:16;;;;;;;2.10;1.90;;;15.10;99.90;;;;;;941905;149;27433;-78
2023/10/24 01:06:42;;;;;;;2.75;2.00;;;15.10;99.90;;;;;;941183;149;27424;-77
2023/10/24 01:09:09;;;;;;;3.08;2.02;;;15.10;99.90;;;;;;938289;149;27370;-78
2023/10/24 01:11:35;;;;;;;2.17;1.98;;;15.10;99.90;;;;;;938663;149;27297;-78
2023/10/24 01:14:02;;;;;;;3.22;2.00;;;15.20;99.90;;;;;;939751;149;27320;-77
2023/10/24 01:16:28;;;;;;;2.75;1.90;;;15.20;99.90;;;;;;939875;149;27463;-78
2023/10/24 01:18:55;;;;;;;2.72;2.20;;;15.20;99.90;;;;;;940282;149;27436;-77
2023/10/24 01:21:21;;;;;;;2.37;2.17;;;15.20;99.90;;;;;;941013;148;27805;-77
2023/10/24 01:23:48;;;;;;;2.30;1.82;;;15.20;99.90;;;;;;938660;149;27548;-78
2023/10/24 01:26:15;;;;;;;2.40;1.95;;;15.20;99.90;;;;;;938683;149;27405;-78
2023/10/24 01:28:41;;;;;;;3.77;2.17;;;15.20;99.90;;;;;;937664;149;27294;-78
2023/10/24 01:31:08;;;;;;;1.87;1.77;;;15.20;99.90;;;;;;939523;149;27412;-78
2023/10/24 01:33:34;;;;;;;3.55;2.15;;;15.20;99.90;;;;;;941408;149;27381;-78
2023/10/24 01:36:01;;;;;;;2.87;2.20;;;15.20;99.90;;;;;;939926;149;27369;-75
2023/10/24 01:38:27;;;;;;;2.72;2.00;;;15.20;99.90;;;;;;938916;149;27386;-76
2023/10/24 01:40:54;;;;;;;3.50;2.02;;;15.20;99.90;;;;;;938388;149;27290;-77
2023/10/24 01:43:21;;;;;;;3.35;2.00;;;15.20;99.90;;;;;;938061;149;27421;-78
2023/10/24 01:45:47;;;;;;;2.90;2.10;;;15.20;99.90;;;;;;939188;149;27459;-78
2023/10/24 01:48:14;;;;;;;4.12;2.22;;;15.20;99.90;;;;;;938858;149;27375;-78
2023/10/24 01:50:40;;;;;;;6.33;1.98;;;15.20;99.90;;;;;;937206;149;27430;-78
2023/10/24 01:53:07;;;;;;;3.50;1.95;;;15.20;99.90;;;;;;939046;149;27418;-78
2023/10/24 01:55:34;;;;;;;2.30;2.10;;;15.20;99.90;;;;;;939899;149;27278;-78
2023/10/24 01:58:00;;;;;;;4.40;3.05;;;15.20;99.90;;;;;;921569;152;27403;-77
2023/10/24 02:00:27;;;;;;;2.35;1.60;;;15.20;99.90;;;;;;939650;149;27328;-78
2023/10/24 02:02:53;;;;;;;3.37;2.45;;;15.20;99.90;;;;;;939233;149;27422;-75
2023/10/24 02:05:20;;;;;;;2.10;1.90;;;15.20;99.90;;;;;;942976;149;27386;-78
2023/10/24 02:07:47;;;;;;;2.72;1.82;;;15.20;99.90;;;;;;940749;149;27346;-76
2023/10/24 02:10:14;;;;;;;2.50;2.00;;;15.20;99.90;;;;;;940423;149;27324;-78
2023/10/24 02:12:40;;;;;;;4.60;2.15;;;15.20;99.90;;;;;;939930;148;27299;-72
2023/10/24 02:15:06;;;;;;;2.22;1.90;;;15.20;99.90;;;;;;937223;149;27383;-74
2023/10/24 02:17:33;;;;;;;1.95;1.80;;;15.20;99.90;;;;;;937800;149;27373;-73
2023/10/24 02:20:00;;;;;;;3.75;2.77;;;15.20;99.90;;;;;;939638;149;27442;-73
2023/10/24 02:22:26;;;;;;;1.75;1.65;;;15.20;99.90;;;;;;941977;149;27382;-72
2023/10/24 02:24:53;;;;;;;6.80;2.40;;;15.20;99.90;;;;;;936984;149;28618;-74
2023/10/24 02:27:19;;;;;;;4.10;2.22;;;15.20;99.90;;;;;;940842;149;27321;-73
2023/10/24 02:29:46;;;;;;;1.90;1.80;;;15.20;99.90;;;;;;938562;149;27384;-73
2023/10/24 02:32:12;;;;;;;2.08;1.90;;;15.20;99.90;;;;;;940829;149;27364;-77
2023/10/24 02:34:39;;;;;;;3.25;2.25;;;15.20;99.90;;;;;;940636;149;27462;-73
2023/10/24 02:37:06;;;;;;;2.52;2.10;;;15.20;99.90;;;;;;937086;149;27355;-73
2023/10/24 02:39:32;;;;;;;2.27;2.17;;;15.10;99.90;;;;;;940255;149;27425;-73
2023/10/24 02:42:00;;;;;;;2.50;2.30;;;15.10;99.90;;;;;;939998;149;27474;-73
2023/10/24 02:44:25;;;;;;;2.12;1.95;;;15.10;99.90;;;;;;938302;148;27421;-76
2023/10/24 02:46:52;;;;;;;2.72;1.95;;;15.10;99.90;;;;;;939434;149;27327;-75
2023/10/24 02:49:19;;;;;;;6.17;2.20;;;15.10;99.90;;;;;;938736;149;27284;-75
2023/10/24 02:51:45;;;;;;;3.60;2.08;;;15.10;99.90;;;;;;939487;149;27306;-75
2023/10/24 02:54:12;;;;;;;3.40;2.42;;;15.10;99.90;;;;;;939109;149;27334;-74
2023/10/24 02:56:38;;;;;;;2.08;1.98;;;15.10;99.90;;;;;;936723;151;27310;-73
2023/10/24 02:59:05;;;;;;;2.42;2.08;;;15.10;99.90;;;;;;941500;149;27385;-76
2023/10/24 03:01:32;;;;;;;3.95;2.20;;;15.10;99.90;;;;;;938968;148;27353;-75
2023/10/24 03:03:58;;;;;;;2.30;2.10;;;15.10;99.90;;;;;;939221;149;27339;-75
2023/10/24 03:06:25;;;;;;;2.40;2.20;;;15.10;99.90;;;;;;939696;149;27386;-72
2023/10/24 03:08:51;;;;;;;3.58;2.10;;;15.10;99.90;;;;;;938878;149;27429;-73
2023/10/24 03:11:22;;;;;;;3.58;2.30;;;15.10;99.90;;;;;;939895;149;27385;-72
2023/10/24 03:13:47;;;;;;;4.05;2.42;;;15.10;99.90;;;;;;938508;149;27342;-73
2023/10/24 03:16:14;;;;;;;2.45;2.25;;;15.00;99.90;;;;;;937873;149;27391;-73
2023/10/24 03:18:41;;;;;;;2.45;2.25;;;15.00;99.90;;;;;;940367;148;27362;-72
2023/10/24 03:21:07;;;;;;;2.42;2.10;;;15.00;99.90;;;;;;940521;149;27315;-75
2023/10/24 03:23:34;;;;;;;3.50;2.08;;;15.00;99.90;;;;;;938203;151;27353;-73
2023/10/24 03:26:00;;;;;;;2.98;2.45;;;15.00;99.90;;;;;;937935;151;27323;-73
2023/10/24 03:28:27;;;;;;;3.33;2.50;;;15.00;99.90;;;;;;938196;148;27274;-73
2023/10/24 03:31:05;;;;;;;2.40;2.20;;;15.00;99.90;;;;;;939927;149;27434;-73
2023/10/24 03:33:32;;;;;;;2.12;1.95;;;15.00;99.90;;;;;;925958;153;27373;-74
2023/10/24 03:35:59;;;;;;;2.40;2.20;;;15.00;99.90;;;;;;920726;152;27345;-75
2023/10/24 03:38:26;;;;;;;2.58;2.37;;;15.00;99.90;;;;;;925720;151;27480;-74
2023/10/24 03:40:52;;;;;;;2.35;2.10;;;15.00;99.90;;;;;;923546;151;27327;-73
2023/10/24 03:43:18;;;;;;;2.58;2.15;;;15.00;99.90;;;;;;940272;149;27358;-73
2023/10/24 03:45:45;;;;;;;2.72;2.30;;;15.00;99.90;;;;;;940673;149;27321;-73
2023/10/24 03:48:12;;;;;;;3.20;2.30;;;15.00;99.90;;;;;;940818;149;27654;-73
2023/10/24 03:50:38;;;;;;;2.37;2.17;;;15.00;99.90;;;;;;937954;149;27438;-76
2023/10/24 03:53:05;;;;;;;2.45;2.25;;;15.00;99.90;;;;;;938826;149;27390;-77
2023/10/24 03:55:31;;;;;;;2.50;2.30;;;15.00;99.90;;;;;;938605;149;27291;-75
2023/10/24 03:57:58;;;;;;;2.85;2.20;;;15.00;99.90;;;;;;940396;149;27356;-72
2023/10/24 04:00:25;;;;;;;4.83;2.50;;;15.00;99.90;;;;;;941164;149;27342;-74
2023/10/24 04:02:51;;;;;;;5.92;2.20;;;15.00;99.90;;;;;;924743;151;27306;-73
2023/10/24 04:05:18;;;;;;;2.52;2.25;;;15.00;99.90;;;;;;927703;151;27323;-73
2023/10/24 04:07:44;;;;;;;3.77;2.42;;;15.00;99.90;;;;;;921489;152;27465;-74
2023/10/24 04:10:11;;;;;;;2.40;2.20;;;15.00;99.90;;;;;;941125;149;27393;-73
2023/10/24 04:12:37;;;;;;;3.27;2.20;;;15.00;99.90;;;;;;939142;149;27388;-74
2023/10/24 04:15:05;;;;;;;3.00;2.52;;;15.00;99.90;;;;;;940050;149;27349;-74
2023/10/24 04:17:31;;;;;;;5.00;2.12;;;15.00;99.90;;;;;;939875;149;27314;-73
2023/10/24 04:19:57;;;;;;;3.75;2.17;;;15.00;99.90;;;;;;941270;149;27634;-73
2023/10/24 04:22:24;;;;;;;4.05;2.00;;;15.00;99.90;;;;;;940095;149;27355;-73
2023/10/24 04:24:50;;;;;;;5.22;2.50;;;15.10;99.90;;;;;;939232;149;27446;-75
2023/10/24 04:27:17;;;;;;;2.25;2.12;;;15.10;99.90;;;;;;923865;151;27507;-73
2023/10/24 04:29:44;;;;;;;2.52;2.33;;;15.10;99.90;;;;;;920588;152;27353;-73
2023/10/24 04:32:13;;;;;;;3.17;1.98;;;15.10;99.90;;;;;;939130;149;27358;-76
2023/10/24 04:34:37;;;;;;;2.00;1.90;;;15.10;99.90;;;;;;938829;149;27314;-72
2023/10/24 04:37:04;;;;;;;2.67;1.80;;;15.10;99.90;;;;;;939187;149;27380;-72
2023/10/24 04:39:30;;;;;;;3.70;2.22;;;15.10;99.90;;;;;;939219;149;27306;-73
2023/10/24 04:41:57;;;;;;;8.00;2.90;;;15.10;99.90;;;;;;939655;149;27421;-73
2023/10/24 04:44:23;;;;;;;3.65;2.20;;;15.00;99.90;;;;;;937614;148;27385;-73
2023/10/24 04:46:50;;;;;;;3.67;2.65;;;15.10;99.90;;;;;;939989;149;27274;-73
2023/10/24 04:49:16;;;;;;;3.40;2.50;;;15.00;99.90;;;;;;940126;149;27350;-73
2023/10/24 04:51:43;;;;;;;2.47;2.10;;;15.00;99.90;;;;;;931639;149;27502;-75
2023/10/24 04:54:10;;;;;;;2.25;2.05;;;15.00;99.90;;;;;;927615;150;27439;-74
2023/10/24 04:56:36;;;;;;;3.27;2.50;;;14.90;99.90;;;;;;928036;150;27369;-76
2023/10/24 04:59:03;;;;;;;3.08;2.10;;;15.00;99.90;;;;;;927857;150;27796;-74
2023/10/24 05:01:37;;;;;;;2.35;2.15;;;15.00;99.90;;;;;;929485;150;27432;-74
2023/10/24 05:03:56;;;;;;;3.77;2.60;;;15.00;99.90;;;;;;928871;150;27866;-74
2023/10/24 05:06:22;;;;;;;2.67;2.15;;;15.00;99.90;;;;;;928784;150;27389;-73
2023/10/24 05:08:49;;;;;;;3.33;2.58;;;14.90;99.90;;;;;;928923;150;27316;-73
2023/10/24 05:11:16;;;;;;;4.40;2.27;;;14.90;99.90;;;;;;928296;150;27260;-73
2023/10/24 05:13:42;;;;;;;2.42;2.17;;;14.90;99.90;;;;;;926273;150;27493;-72
2023/10/24 05:16:09;;;;;;;2.50;2.00;;;14.90;99.90;;;;;;929772;150;27407;-74
2023/10/24 05:18:35;;;;;;;3.75;2.83;;;14.90;99.90;;;;;;928290;150;27367;-73
2023/10/24 05:21:02;;;;;;;2.90;2.62;;;14.90;99.90;;;;;;927859;150;27387;-72
2023/10/24 05:23:29;;;;;;;2.75;2.45;;;14.90;99.90;;;;;;927915;150;27471;-75
2023/10/24 05:25:55;;;;;;;3.98;2.60;;;14.90;99.90;;;;;;928392;150;27308;-74
2023/10/24 05:28:22;;;;;;;3.05;2.52;;;14.90;99.90;;;;;;930099;150;27292;-73
2023/10/24 05:30:48;;;;;;;2.50;2.30;;;14.90;99.90;;;;;;927154;150;27478;-76
2023/10/24 05:33:15;;;;;;;2.95;2.67;;;14.90;99.90;;;;;;925723;150;27500;-73
2023/10/24 05:35:48;;;;;;;2.72;2.33;;;14.80;99.90;;;;;;930237;150;27452;-73
2023/10/24 05:38:14;;;;;;;4.35;2.80;;;14.90;99.90;;;;;;928696;150;27472;-72
2023/10/24 05:40:41;;;;;;;2.75;2.52;;;14.80;99.90;;;;;;928589;150;27455;-73
2023/10/24 05:43:07;;;;;;;2.70;2.50;;;14.90;99.90;;;;;;924991;150;27363;-75
2023/10/24 05:45:34;;;;;;;2.75;2.55;;;14.80;99.90;;;;;;927676;150;27344;-75
2023/10/24 05:48:01;;;;;;;3.15;2.83;;;14.80;99.90;;;;;;928050;150;27374;-75
2023/10/24 05:50:29;;;;;;;5.65;3.02;;;14.80;99.90;;;;;;925915;150;27489;-75
2023/10/24 05:52:54;;;;;;;7.17;3.70;;;14.80;99.90;;;;;;928531;150;27513;-75
2023/10/24 05:55:20;;;;;;;4.53;2.67;;;14.80;99.90;;;;;;927099;150;27320;-75
2023/10/24 05:57:47;;;;;;;3.67;2.83;;;14.80;99.90;;;;;;926838;150;27323;-75
2023/10/24 06:00:14;;;;;;;3.02;2.30;;;14.80;99.90;;;;;;927958;150;27307;-75
2023/10/24 06:02:40;;;;;;;4.95;2.75;;;14.80;99.90;;;;;;927187;150;27288;-75
2023/10/24 06:05:08;;;;;;;3.27;2.70;;;14.80;99.90;;;;;;927864;150;27733;-76
2023/10/24 06:07:34;;;;;;;2.92;2.62;;;14.80;99.90;;;;;;930011;150;27382;-75
2023/10/24 06:10:02;;;;;;;2.62;2.42;;;14.80;99.90;;;;;;928802;150;27348;-76
2023/10/24 06:12:28;;;;;;;4.45;3.10;;;14.80;99.90;;;;;;926144;150;27452;-75
2023/10/24 06:14:54;;;;;;;3.25;2.95;;;14.80;99.90;;;;;;926909;151;27379;-75
2023/10/24 06:17:21;;;;;;;4.55;2.85;;;14.80;99.90;;;;;;930106;150;27373;-75
2023/10/24 06:19:49;;;;;;;3.27;2.77;;;14.80;99.90;;;;;;927767;150;28303;-75
2023/10/24 06:22:14;;;;;;;3.42;3.12;;;14.80;99.90;;;;;;926779;150;27395;-75
2023/10/24 06:24:41;;;;;;;4.55;2.80;;;14.80;99.90;;;;;;928502;150;27316;-75
2023/10/24 06:27:09;;;;;;;3.15;2.85;;;14.80;99.90;;;;;;928751;150;27680;-76
2023/10/24 06:29:34;;;;;;;2.67;2.47;;;14.80;99.90;;;;;;927976;150;27383;-75
2023/10/24 06:32:00;;;;;;;3.55;3.05;;;14.80;99.90;;;;;;925800;150;27358;-75
2023/10/24 06:34:27;;;;;;;4.25;2.92;;;14.80;99.90;;;;;;927145;149;27369;-75
2023/10/24 06:36:53;;;;;;;2.90;2.67;;;14.80;99.90;;;;;;927834;149;27446;-76
2023/10/24 06:39:20;;;;;;;4.47;2.55;;;14.80;99.90;;;;;;924863;149;27353;-75
2023/10/24 06:41:47;;;;;;;2.83;2.62;;;14.80;99.90;;;;;;910514;152;27418;-75
2023/10/24 06:44:13;;;;;;;3.92;2.72;;;14.80;99.90;;;;;;928169;150;27387;-75
2023/10/24 06:46:40;;;;;;;2.77;2.58;;;14.80;99.90;;;;;;928321;150;27328;-75
2023/10/24 06:49:08;;;;;;;2.70;2.42;;;14.80;99.90;;;;;;928506;150;27348;-75
2023/10/24 06:51:33;;;;;;;2.72;2.52;;;14.80;99.90;;;;;;926820;150;28597;-75
2023/10/24 06:54:00;;;;;;;3.92;2.58;;;14.90;99.90;;;;;;904799;154;27518;-73
2023/10/24 06:56:26;;;;;;;5.28;2.58;;;14.90;99.90;;;;;;929010;150;27324;-73
2023/10/24 06:58:53;;;;;;;3.58;2.87;;;14.90;99.90;;;;;;926190;150;27371;-76
2023/10/24 07:01:19;;;;;;;5.17;2.58;;;15.00;99.90;;;;;;928716;150;27728;-73
2023/10/24 07:03:47;;;;;;;4.28;2.80;;;14.90;99.90;;;;;;928381;150;27388;-73
2023/10/24 07:06:13;;;;;;;3.12;2.45;;;15.00;99.90;;;;;;929973;150;27403;-73
2023/10/24 07:08:40;;;;;;;3.67;2.95;;;15.00;99.90;;;;;;929260;150;27371;-73
2023/10/24 07:11:06;;;;;;;4.97;2.67;;;15.10;99.90;;;;;;929278;150;27325;-73
2023/10/24 07:13:36;;;;;;;4.30;2.92;;;15.10;99.90;;;;;;926179;150;27438;-73
2023/10/24 07:15:59;;;;;;;8.48;5.58;;;15.10;99.90;;;;;;928263;150;27304;-74
2023/10/24 07:18:25;;;;;;;10.05;6.10;;;15.10;99.90;;;;;;927702;150;27393;-77
2023/10/24 07:20:52;;;;;;;6.85;4.60;;;15.20;99.90;;;;;;928805;150;27395;-73
2023/10/24 07:23:19;;;;;;;10.25;5.17;;;15.20;99.90;;;;;;928484;150;27336;-75
2023/10/24 07:25:45;;;;;;;8.18;5.58;;;15.20;99.90;;;;;;926671;150;27393;-73
2023/10/24 07:28:12;;;;;;;8.70;5.72;;;15.20;99.90;;;;;;927606;150;27385;-75
2023/10/24 07:30:38;;;;;;;4.85;3.80;;;15.20;99.90;;;;;;928491;150;27327;-75
2023/10/24 07:33:05;;;;;;;3.83;3.27;;;15.20;99.90;;;;;;926549;149;27274;-73
2023/10/24 07:35:32;;;;;;;3.20;2.90;;;15.20;99.90;;;;;;928244;150;27415;-77
2023/10/24 07:37:58;;;;;;;5.00;2.77;;;15.30;99.90;;;;;;927743;150;27391;-78
2023/10/24 07:40:25;;;;;;;4.83;3.22;;;15.30;99.90;;;;;;927940;150;27297;-78
2023/10/24 07:42:51;;;;;;;3.45;2.75;;;15.30;99.90;;;;;;912160;152;27432;-76
2023/10/24 07:45:18;;;;;;;3.67;2.80;;;15.40;99.90;;;;;;904847;153;27493;-74
2023/10/24 07:47:45;;;;;;;4.03;2.60;;;15.40;99.90;;;;;;922728;152;27334;-76
2023/10/24 07:50:11;;;;;;;3.17;2.92;;;15.40;99.90;;;;;;924550;151;27481;-75
2023/10/24 07:52:38;;;;;;;3.12;2.55;;;15.40;99.90;;;;;;923840;152;27492;-75
2023/10/24 07:55:04;;;;;;;3.62;2.50;;;15.50;99.90;;;;;;905488;156;27314;-74
2023/10/24 07:57:31;;;;;;;5.37;3.05;;;15.50;99.90;;;;;;919176;155;27302;-75
2023/10/24 07:59:58;;;;;;;3.33;2.65;;;15.50;99.90;;;;;;916620;152;28833;-74
2023/10/24 08:02:24;;;;;;;3.42;2.47;;;15.50;99.90;;;;;;915122;152;27379;-78
2023/10/24 08:04:51;;;;;;;2.75;2.55;;;15.50;99.90;;;;;;918189;155;27526;-75
2023/10/24 08:07:17;;;;;;;3.37;3.00;;;15.50;99.90;;;;;;920549;155;27386;-75
2023/10/24 08:09:44;;;;;;;2.83;2.62;;;15.60;99.90;;;;;;917432;155;27433;-75
2023/10/24 08:12:11;;;;;;;3.20;2.60;;;15.60;99.90;;;;;;916268;155;27392;-79
2023/10/24 08:14:37;;;;;;;3.90;3.08;;;15.60;99.90;;;;;;917428;155;27383;-77
2023/10/24 08:17:04;;;;;;;2.65;2.35;;;15.60;99.90;;;;;;918355;155;27388;-80
2023/10/24 08:19:30;;;;;;;3.40;3.00;;;15.60;99.90;;;;;;917053;152;27418;-80
2023/10/24 08:21:57;;;;;;;2.92;2.60;;;15.60;99.90;;;;;;917441;155;27356;-79
2023/10/24 08:24:23;;;;;;;3.52;2.70;;;15.60;99.90;;;;;;917251;155;27406;-75
2023/10/24 08:26:50;;;;;;;3.00;2.70;;;15.60;99.90;;;;;;917952;152;27388;-75
2023/10/24 08:29:17;;;;;;;3.33;2.90;;;15.60;99.90;;;;;;917096;155;27495;-79
2023/10/24 08:31:44;;;;;;;5.00;2.80;;;15.60;99.90;;;;;;917149;155;27313;-75
2023/10/24 08:34:12;;;;;;;3.37;3.00;;;15.60;99.90;;;;;;918177;152;27821;-76
2023/10/24 08:36:36;;;;;;;3.60;3.30;;;15.60;99.90;;;;;;917865;152;27343;-75
2023/10/24 08:39:03;;;;;;;3.62;2.90;;;15.60;99.90;;;;;;917718;154;27352;-75
2023/10/24 08:41:30;;;;;;;3.22;2.92;;;15.60;99.90;;;;;;919075;155;27387;-73
2023/10/24 08:43:56;;;;;;;3.85;3.05;;;15.60;99.90;;;;;;918600;153;27848;-73
2023/10/24 08:46:23;;;;;;;3.42;3.12;;;15.60;99.90;;;;;;917024;155;28442;-73
2023/10/24 08:48:50;;;;;;;3.00;2.70;;;15.70;99.90;;;;;;917306;155;27962;-73
2023/10/24 08:51:16;;;;;;;4.12;3.47;;;15.70;99.90;;;;;;917398;155;28190;-73
2023/10/24 08:53:42;;;;;;;3.22;2.92;;;15.70;99.90;;;;;;918417;155;27852;-73
2023/10/24 08:56:09;;;;;;;4.40;3.20;;;15.70;99.90;;;;;;918759;155;27387;-73
2023/10/24 08:58:36;;;;;;;3.55;3.22;;;15.70;99.90;;;;;;918149;154;27318;-73
2023/10/24 09:01:02;;;;;;;3.60;3.30;;;15.70;99.90;;;;;;919304;155;27298;-77
2023/10/24 09:03:29;;;;;;;3.15;2.90;;;15.70;99.90;;;;;;919127;155;27366;-76
2023/10/24 09:05:55;;;;;;;3.30;3.00;;;15.70;99.90;;;;;;919519;155;27375;-74
2023/10/24 09:08:22;;;;;;;3.98;3.60;;;15.80;99.90;;;;;;918391;155;27391;-73
2023/10/24 09:10:49;;;;;;;3.55;3.25;;;15.80;99.90;;;;;;918546;155;27336;-75
2023/10/24 09:13:15;;;;;;;4.15;3.20;;;15.80;99.90;;;;;;918194;155;27499;-76
2023/10/24 09:15:42;;;;;;;3.87;3.50;;;15.80;99.90;;;;;;917097;155;27349;-77
2023/10/24 09:18:08;;;;;;;3.83;3.52;;;15.80;99.90;;;;;;918851;155;27418;-73
2023/10/24 09:20:35;;;;;;;4.55;2.85;;;15.80;99.90;;;;;;918980;155;27326;-76
2023/10/24 09:23:07;;;;;;;4.72;3.30;;;15.80;99.90;;;;;;918262;155;27388;-73
2023/10/24 09:25:34;;;;;;;3.25;2.95;;;15.80;99.90;;;;;;917487;155;27333;-73
2023/10/24 09:28:16;;;;;;;3.35;3.08;;;15.80;99.90;;;;;;917850;155;28320;-73
2023/10/24 09:30:42;;;;;;;3.15;2.92;;;15.80;99.90;;;;;;916309;155;27445;-76
2023/10/24 09:33:09;;;;;;;3.27;2.98;;;15.80;99.90;;;;;;917998;155;27318;-76
2023/10/24 09:35:35;;;;;;;3.12;2.85;;;15.90;99.90;;;;;;916979;155;27358;-75
2023/10/24 09:38:02;;;;;;;5.92;3.55;;;15.90;99.90;;;;;;918611;155;27334;-75
2023/10/24 09:40:37;;;;;;;3.62;3.33;;;15.90;99.90;;;;;;918852;155;27992;-75
2023/10/24 09:43:04;;;;;;;4.33;3.40;;;15.90;99.90;;;;;;927045;153;27350;-75
2023/10/24 09:45:30;;;;;;;3.20;3.00;;;16.00;99.90;;;;;;918739;155;27497;-75
2023/10/24 09:47:57;;;;;;;3.33;3.02;;;16.00;99.90;;;;;;917647;155;27402;-75
2023/10/24 09:50:24;;;;;;;3.85;2.87;;;16.00;99.90;;;;;;916493;155;27399;-76
2023/10/24 09:52:50;;;;;;;3.10;2.77;;;16.10;99.90;;;;;;916384;155;27342;-75
2023/10/24 09:55:17;;;;;;;4.53;3.12;;;16.10;99.90;;;;;;918322;154;27400;-75
2023/10/24 09:57:46;;;;;;;4.10;3.10;;;16.10;99.90;;;;;;917213;155;28126;-75
2023/10/24 10:00:11;;;;;;;3.42;3.12;;;16.20;99.90;;;;;;917047;155;27351;-75
2023/10/24 10:02:36;;;;;;;4.92;3.42;;;16.20;99.90;;;;;;918165;152;27394;-75
2023/10/24 10:05:03;;;;;;;2.83;2.62;;;16.20;99.90;;;;;;919150;155;27396;-75
2023/10/24 10:07:30;;;;;;;3.37;2.60;;;16.30;99.90;;;;;;917303;155;27392;-75
2023/10/24 10:09:56;;;;;;;2.98;2.77;;;16.30;99.90;;;;;;917989;155;27374;-76
2023/10/24 10:12:23;;;;;;;3.25;2.65;;;16.30;99.90;;;;;;917996;155;27411;-75
2023/10/24 10:15:08;;;;;;;2.95;2.75;;;16.30;99.90;;;;;;931401;153;27330;-75
2023/10/24 10:17:59;;;;;;;3.60;2.90;;;16.40;99.90;;;;;;930868;153;27382;-75
2023/10/24 10:20:43;;;;;;;3.20;2.90;;;16.40;99.90;;;;;;930523;153;27426;-75
2023/10/24 10:23:21;;;;;;;2.90;2.60;;;16.40;99.90;;;;;;929798;150;27376;-75
2023/10/24 10:26:01;;;;;;;3.05;2.85;;;16.40;99.90;;;;;;930683;150;27307;-75
2023/10/24 10:28:27;;;;;;;3.52;3.22;;;16.40;99.90;;;;;;932056;153;27303;-75
2023/10/24 10:30:59;;;;;;;2.83;2.62;;;16.40;99.90;;;;;;930792;151;27303;-75
2023/10/24 10:33:25;;;;;;;2.87;2.67;;;16.40;99.90;;;;;;907610;152;27384;-77
2023/10/24 10:36:09;;;;;;;3.02;2.55;;;16.50;99.90;;;;;;931328;152;27295;-73
2023/10/24 10:38:45;;;;;;;2.50;2.30;;;16.50;99.90;;;;;;928881;153;27337;-73
2023/10/24 10:41:28;;;;;;;3.45;2.87;;;16.50;99.90;;;;;;932865;150;27291;-75
2023/10/24 10:43:53;;;;;;;3.33;3.02;;;16.50;99.90;;;;;;935436;152;27401;-80
2023/10/24 10:46:20;;;;;;;2.87;2.67;;;16.50;99.90;;;;;;930420;153;27380;-79
2023/10/24 10:48:49;;;;;;;2.45;2.25;;;16.50;99.90;;;;;;930398;151;27358;-80
2023/10/24 10:51:22;;;;;;;3.02;2.52;;;16.50;99.90;;;;;;933062;153;27441;-79
2023/10/24 10:53:50;;;;;;;2.72;2.52;;;16.50;99.90;;;;;;931243;153;27483;-80
2023/10/24 10:56:23;;;;;;;3.37;2.65;;;16.50;99.90;;;;;;937383;148;27314;-80
2023/10/24 10:59:07;;;;;;;3.85;2.70;;;16.50;99.90;;;;;;941242;149;27369;-80
2023/10/24 11:01:34;;;;;;;4.55;2.80;;;16.50;99.90;;;;;;941011;149;27302;-79
2023/10/24 11:04:00;;;;;;;3.55;3.25;;;16.50;99.90;;;;;;924657;151;27404;-80
2023/10/24 11:06:27;;;;;;;3.47;2.85;;;16.50;99.90;;;;;;938893;149;27296;-80
2023/10/24 11:09:08;;;;;;;4.28;3.40;;;16.50;99.90;;;;;;940124;151;27326;-79
2023/10/24 11:11:37;;;;;;;4.65;3.27;;;16.50;99.90;;;;;;940112;149;27416;-81
2023/10/24 11:14:16;;;;;;;3.20;2.90;;;16.60;99.90;;;;;;942004;149;27274;-80
2023/10/24 11:16:43;;;;;;;3.62;3.15;;;16.60;99.90;;;;;;939744;149;27424;-79
2023/10/24 11:19:19;;;;;;;3.80;3.50;;;16.60;99.90;;;;;;942328;149;27672;-80
2023/10/24 11:21:51;;;;;;;3.60;3.30;;;16.60;99.90;;;;;;938316;149;27493;-79
2023/10/24 11:24:20;;;;;;;4.53;3.72;;;16.60;99.90;;;;;;940443;149;27383;-80
2023/10/24 11:26:47;;;;;;;4.28;3.30;;;16.60;99.90;;;;;;938210;149;27355;-81
2023/10/24 11:29:13;;;;;;;3.65;3.35;;;16.60;99.90;;;;;;941071;149;28101;-80
2023/10/24 11:31:40;;;;;;;3.15;2.95;;;16.60;99.90;;;;;;934922;150;27475;-80
2023/10/24 11:34:06;;;;;;;3.92;3.62;;;16.60;99.90;;;;;;921260;152;27316;-80
2023/10/24 11:36:34;;;;;;;3.25;3.05;;;16.60;99.90;;;;;;922187;151;27380;-80
2023/10/24 11:39:00;;;;;;;3.52;3.22;;;16.60;99.90;;;;;;924156;151;27414;-80
2023/10/24 11:41:27;;;;;;;9.83;5.08;;;16.60;99.90;;;;;;938582;149;27419;-78
2023/10/24 11:43:53;;;;;;;4.37;3.62;;;16.60;99.90;;;;;;940210;149;27484;-73
2023/10/24 11:46:19;;;;;;;3.60;3.30;;;16.60;99.90;;;;;;939703;149;27283;-77
2023/10/24 11:48:46;;;;;;;2.58;2.37;;;16.60;99.90;;;;;;939115;149;27330;-72
2023/10/24 11:51:13;;;;;;;3.33;3.10;;;16.60;99.90;;;;;;938242;149;27472;-76
2023/10/24 11:53:39;;;;;;;3.08;2.80;;;16.60;99.90;;;;;;939235;149;27326;-75
2023/10/24 11:56:06;;;;;;;4.47;3.30;;;16.60;99.90;;;;;;942466;148;27374;-75
2023/10/24 11:58:34;;;;;;;3.30;3.02;;;16.60;99.90;;;;;;946698;148;27981;-75
2023/10/24 12:01:00;;;;;;;3.12;2.83;;;16.60;99.90;;;;;;943418;148;27437;-75
2023/10/24 12:03:25;;;;;;;3.15;2.85;;;16.60;99.90;;;;;;945934;148;27449;-76
2023/10/24 12:05:52;;;;;;;2.90;2.70;;;16.60;99.90;;;;;;944900;148;27355;-75
2023/10/24 12:08:25;;;;;;;3.27;2.98;;;16.60;99.90;;;;;;944963;148;27396;-75
2023/10/24 12:10:54;;;;;;;3.25;3.05;;;16.60;99.90;;;;;;945300;148;27338;-75
2023/10/24 12:13:21;;;;;;;4.67;3.52;;;16.50;99.90;;;;;;946506;148;27468;-75
2023/10/24 12:15:47;;;;;;;3.62;3.30;;;16.50;99.90;;;;;;945988;148;27314;-75
2023/10/24 12:18:14;;;;;;;2.90;2.70;;;16.50;99.90;;;;;;948097;148;27353;-75
2023/10/24 12:20:40;;;;;;;3.83;3.52;;;16.50;99.90;;;;;;928795;150;27811;-76
2023/10/24 12:23:07;;;;;;;5.40;4.40;;;16.50;99.90;;;;;;927791;150;27321;-76
2023/10/24 12:25:34;;;;;;;3.77;3.47;;;16.50;99.90;;;;;;937477;149;27394;-75
2023/10/24 12:28:00;;;;;;;4.47;4.08;;;16.50;99.90;;;;;;947449;148;27353;-75
2023/10/24 12:30:28;;;;;;;4.50;4.08;;;16.50;99.90;;;;;;946650;148;27454;-75
2023/10/24 12:32:53;;;;;;;3.42;3.17;;;16.50;99.90;;;;;;944262;148;27353;-75
2023/10/24 12:35:20;;;;;;;3.00;2.62;;;16.50;99.90;;;;;;944075;148;27386;-75
2023/10/24 12:37:46;;;;;;;4.30;3.58;;;16.50;99.90;;;;;;948168;148;27299;-77
2023/10/24 12:40:13;;;;;;;3.00;2.80;;;16.50;99.90;;;;;;943455;148;27344;-76
2023/10/24 12:42:40;;;;;;;2.92;2.70;;;16.50;99.90;;;;;;946843;148;27511;-75
2023/10/24 12:45:06;;;;;;;2.62;2.42;;;16.50;99.90;;;;;;944189;148;27375;-75
2023/10/24 12:47:33;;;;;;;3.02;2.83;;;16.50;99.90;;;;;;942970;148;27454;-75